Time;durP1;ratioP1;P1;durP2;ratioP2;P2;SDS_P1;SDS_P2;PMS_P1;PMS_P2;Temp;Humidity;BMP_temperature;BMP_pressure;BME280_temperature;BME280_humidity;BME280_pressure;Samples;Min_cycle;Max_cycle;Signal;HPM_P1;HPM_P2
2023/11/07 00:02:15;;;;;;;4.95;1.80;;;8.00;99.90;;;;;;5066814;28;20035;-72
2023/11/07 00:04:42;;;;;;;6.15;1.90;;;7.90;99.90;;;;;;5070356;28;20028;-73
2023/11/07 00:07:09;;;;;;;4.93;1.45;;;7.90;99.90;;;;;;5076139;28;20027;-73
2023/11/07 00:09:35;;;;;;;6.03;2.15;;;7.90;99.90;;;;;;5076049;28;20093;-73
2023/11/07 00:12:02;;;;;;;3.20;1.30;;;7.90;99.90;;;;;;5070629;28;20052;-73
2023/11/07 00:14:28;;;;;;;4.88;1.50;;;7.80;99.90;;;;;;5075286;28;20035;-72
2023/11/07 00:16:53;;;;;;;3.65;1.55;;;7.70;99.90;;;;;;5073535;28;20470;-72
2023/11/07 00:19:19;;;;;;;5.60;1.30;;;7.70;99.90;;;;;;5076317;28;20035;-72
2023/11/07 00:21:45;;;;;;;3.80;1.40;;;7.70;99.90;;;;;;5075824;28;20036;-72
2023/11/07 00:24:10;;;;;;;2.83;1.15;;;7.70;99.90;;;;;;5075943;28;20055;-72
2023/11/07 00:26:36;;;;;;;3.08;1.08;;;7.80;99.90;;;;;;5077257;28;20391;-72
2023/11/07 00:29:02;;;;;;;4.45;1.42;;;7.70;99.90;;;;;;5076968;28;20024;-72
2023/11/07 00:31:28;;;;;;;3.65;1.45;;;7.70;99.90;;;;;;5074651;28;20130;-72
2023/11/07 00:33:54;;;;;;;4.03;1.10;;;7.80;99.90;;;;;;5078419;28;20397;-72
2023/11/07 00:36:20;;;;;;;2.95;1.02;;;7.70;99.90;;;;;;5076240;28;20020;-72
2023/11/07 00:38:45;;;;;;;5.05;1.73;;;7.70;99.90;;;;;;5075295;28;20035;-72
2023/11/07 00:41:13;;;;;;;3.88;1.33;;;7.70;99.90;;;;;;5078170;28;20036;-72
2023/11/07 00:43:39;;;;;;;2.38;1.00;;;7.70;99.90;;;;;;5075805;28;20048;-72
2023/11/07 00:46:05;;;;;;;4.00;1.52;;;7.70;99.90;;;;;;5076342;28;20423;-73
2023/11/07 00:48:31;;;;;;;1.85;0.93;;;7.60;99.90;;;;;;5077914;28;20032;-72
2023/11/07 00:50:56;;;;;;;14.23;1.60;;;7.50;99.90;;;;;;5076482;28;20061;-72
2023/11/07 00:53:23;;;;;;;2.50;1.02;;;7.60;99.90;;;;;;5075561;28;20077;-72
2023/11/07 00:55:49;;;;;;;3.17;1.40;;;7.60;99.90;;;;;;5079573;28;20036;-72
2023/11/07 00:58:15;;;;;;;4.30;1.38;;;7.60;99.90;;;;;;5078324;28;20028;-72
2023/11/07 01:00:41;;;;;;;3.22;1.60;;;7.50;99.90;;;;;;5076251;28;20028;-72
2023/11/07 01:03:06;;;;;;;5.85;1.52;;;7.40;99.90;;;;;;5076214;28;20111;-73
2023/11/07 01:05:32;;;;;;;2.58;0.98;;;7.40;99.90;;;;;;5076978;28;20370;-72
2023/11/07 01:07:58;;;;;;;5.43;1.17;;;7.40;99.90;;;;;;5072608;28;20477;-72
2023/11/07 01:10:23;;;;;;;2.45;1.15;;;7.50;99.90;;;;;;5074442;28;20040;-73
2023/11/07 01:12:52;;;;;;;2.13;0.98;;;7.50;99.90;;;;;;5076128;28;20032;-72
2023/11/07 01:15:19;;;;;;;2.90;1.00;;;7.50;99.90;;;;;;5074932;28;20526;-72
2023/11/07 01:17:45;;;;;;;2.28;1.10;;;7.40;99.90;;;;;;5075489;28;20531;-72
2023/11/07 01:20:10;;;;;;;2.90;1.20;;;7.40;99.90;;;;;;5076242;28;20118;-72
2023/11/07 01:22:36;;;;;;;2.53;1.02;;;7.40;99.90;;;;;;5075447;28;20039;-72
2023/11/07 01:25:04;;;;;;;2.88;1.00;;;7.50;99.90;;;;;;5073289;28;20125;-72
2023/11/07 01:27:31;;;;;;;3.33;1.45;;;7.60;99.90;;;;;;5072208;28;20035;-72
2023/11/07 01:29:58;;;;;;;3.05;1.02;;;7.60;99.90;;;;;;5071824;28;20085;-73
2023/11/07 01:32:23;;;;;;;2.47;0.90;;;7.60;99.90;;;;;;5072888;28;20590;-72
2023/11/07 01:34:49;;;;;;;3.38;1.05;;;7.60;99.90;;;;;;5075777;28;20039;-72
2023/11/07 01:37:15;;;;;;;1.98;0.82;;;7.60;99.90;;;;;;5071928;28;20450;-72
2023/11/07 01:39:40;;;;;;;2.10;0.98;;;7.60;99.90;;;;;;5073076;28;20043;-73
2023/11/07 01:42:08;;;;;;;5.05;1.10;;;7.70;99.90;;;;;;5075170;28;20035;-72
2023/11/07 01:44:34;;;;;;;3.63;0.93;;;7.60;99.90;;;;;;5076776;28;20409;-72
2023/11/07 01:47:00;;;;;;;2.90;1.10;;;7.70;99.90;;;;;;5075124;28;20386;-72
2023/11/07 01:49:27;;;;;;;2.28;0.95;;;7.80;99.90;;;;;;5074460;28;20089;-73
2023/11/07 01:51:56;;;;;;;2.17;0.85;;;7.90;99.90;;;;;;5075639;28;20059;-72
2023/11/07 01:54:25;;;;;;;4.20;1.17;;;8.00;99.90;;;;;;5074746;28;20032;-72
2023/11/07 01:56:51;;;;;;;6.97;1.27;;;8.10;99.90;;;;;;5074858;28;20036;-72
2023/11/07 01:59:17;;;;;;;6.63;1.27;;;8.10;99.90;;;;;;5076644;28;20131;-72
2023/11/07 02:01:47;;;;;;;3.10;1.30;;;8.00;99.90;;;;;;5075296;28;25838;-72
2023/11/07 02:04:12;;;;;;;3.17;1.02;;;8.10;99.90;;;;;;5072199;28;20042;-72
2023/11/07 02:06:38;;;;;;;2.90;1.25;;;7.90;99.90;;;;;;5074392;28;20429;-72
2023/11/07 02:09:08;;;;;;;5.05;1.15;;;7.90;99.90;;;;;;5076446;28;20465;-72
2023/11/07 02:11:34;;;;;;;2.88;1.10;;;7.90;99.90;;;;;;5073746;28;20036;-72
2023/11/07 02:14:00;;;;;;;3.67;1.15;;;8.00;99.90;;;;;;5074584;28;21345;-73
2023/11/07 02:16:27;;;;;;;3.45;1.13;;;8.10;99.90;;;;;;5075538;28;20036;-72
2023/11/07 02:18:53;;;;;;;3.13;1.52;;;8.10;99.90;;;;;;5074880;28;20058;-72
2023/11/07 02:21:18;;;;;;;5.15;1.80;;;8.10;99.90;;;;;;5074583;28;20478;-73
2023/11/07 02:23:44;;;;;;;6.30;1.35;;;8.10;99.90;;;;;;5074770;28;20035;-72
2023/11/07 02:26:10;;;;;;;3.78;1.20;;;8.20;99.90;;;;;;5073365;28;20039;-72
2023/11/07 02:28:36;;;;;;;3.75;1.83;;;8.20;99.90;;;;;;5075520;28;20465;-72
2023/11/07 02:31:03;;;;;;;5.32;2.00;;;8.20;99.90;;;;;;5076309;28;20484;-72
2023/11/07 02:33:29;;;;;;;5.65;1.63;;;8.10;99.90;;;;;;5073395;28;20135;-72
2023/11/07 02:35:55;;;;;;;2.88;1.38;;;8.10;99.90;;;;;;5076308;28;20054;-72
2023/11/07 02:38:22;;;;;;;3.42;1.80;;;8.00;99.90;;;;;;5074499;28;20024;-72
2023/11/07 02:40:49;;;;;;;4.53;1.40;;;8.00;99.90;;;;;;5074136;28;20037;-73
2023/11/07 02:43:14;;;;;;;3.20;1.73;;;7.90;99.90;;;;;;5074668;28;20028;-72
2023/11/07 02:45:40;;;;;;;3.30;1.65;;;7.90;99.90;;;;;;5074400;28;20034;-72
2023/11/07 02:48:06;;;;;;;5.18;2.13;;;8.00;99.90;;;;;;5072329;28;20405;-72
2023/11/07 02:50:32;;;;;;;3.38;2.08;;;8.10;99.90;;;;;;5075377;28;20036;-72
2023/11/07 02:52:58;;;;;;;5.50;1.85;;;8.10;99.90;;;;;;5073088;28;20476;-72
2023/11/07 02:55:24;;;;;;;4.95;2.58;;;8.10;99.90;;;;;;5070222;28;20245;-72
2023/11/07 02:57:49;;;;;;;5.47;2.83;;;8.10;99.90;;;;;;5075259;28;20031;-72
2023/11/07 03:00:15;;;;;;;5.60;3.13;;;8.10;99.90;;;;;;5073465;28;20454;-73
2023/11/07 03:02:41;;;;;;;5.45;2.50;;;8.00;99.90;;;;;;5071100;28;20062;-72
2023/11/07 03:05:08;;;;;;;5.05;1.90;;;7.90;99.90;;;;;;5075202;28;20149;-72
2023/11/07 03:07:34;;;;;;;4.50;2.13;;;7.80;99.90;;;;;;5072122;28;20040;-72
2023/11/07 03:10:01;;;;;;;4.25;2.30;;;7.90;99.90;;;;;;5072723;28;20097;-72
2023/11/07 03:12:30;;;;;;;3.83;2.03;;;7.90;99.90;;;;;;5072290;28;21924;-73
2023/11/07 03:14:56;;;;;;;3.28;1.67;;;7.90;99.90;;;;;;5074192;28;20117;-72
2023/11/07 03:17:23;;;;;;;5.10;1.85;;;8.00;99.90;;;;;;5072440;28;20097;-72
2023/11/07 03:19:52;;;;;;;3.33;1.60;;;8.00;99.90;;;;;;5071724;28;20039;-73
2023/11/07 03:22:21;;;;;;;4.95;2.33;;;8.00;99.90;;;;;;5072614;28;20371;-72
2023/11/07 03:24:48;;;;;;;9.50;3.08;;;8.10;99.90;;;;;;5071790;28;20032;-72
2023/11/07 03:27:14;;;;;;;5.32;2.70;;;8.10;99.90;;;;;;5071091;28;20031;-72
2023/11/07 03:29:40;;;;;;;4.95;2.47;;;8.20;99.90;;;;;;5072320;28;20031;-72
2023/11/07 03:32:06;;;;;;;8.18;2.60;;;8.20;99.90;;;;;;5072536;28;20058;-72
2023/11/07 03:34:31;;;;;;;4.28;2.65;;;8.20;99.90;;;;;;5069956;28;21472;-72
2023/11/07 03:36:57;;;;;;;4.75;2.75;;;8.20;99.90;;;;;;5072577;28;20032;-73
2023/11/07 03:39:23;;;;;;;6.03;2.95;;;8.10;99.90;;;;;;5073502;28;20035;-72
2023/11/07 03:41:48;;;;;;;5.50;2.90;;;8.00;99.90;;;;;;5071535;28;20078;-72
2023/11/07 03:44:14;;;;;;;4.20;2.63;;;8.10;99.90;;;;;;5071052;28;20717;-73
2023/11/07 03:46:40;;;;;;;4.95;2.70;;;8.10;99.90;;;;;;5074135;28;20385;-72
2023/11/07 03:49:07;;;;;;;5.97;2.33;;;8.10;99.90;;;;;;5073720;28;20114;-73
2023/11/07 03:51:32;;;;;;;8.82;2.95;;;8.10;99.90;;;;;;5072286;28;20052;-72
2023/11/07 03:53:58;;;;;;;6.55;2.33;;;8.10;99.90;;;;;;5073733;28;20040;-72
2023/11/07 03:56:24;;;;;;;4.53;2.53;;;8.10;99.90;;;;;;5073093;28;20035;-72
2023/11/07 03:58:50;;;;;;;6.70;2.70;;;8.10;99.90;;;;;;5073790;28;20123;-72
2023/11/07 04:01:16;;;;;;;5.65;2.80;;;8.20;99.90;;;;;;5072584;28;20024;-72
2023/11/07 04:03:41;;;;;;;5.93;2.78;;;8.20;99.90;;;;;;5067259;28;20065;-73
2023/11/07 04:06:07;;;;;;;4.03;2.60;;;8.20;99.90;;;;;;5070214;28;20047;-73
2023/11/07 04:08:34;;;;;;;6.97;3.45;;;8.10;99.90;;;;;;5067854;28;20116;-73
2023/11/07 04:11:00;;;;;;;5.72;3.20;;;8.10;99.90;;;;;;5066071;28;20047;-72
2023/11/07 04:13:27;;;;;;;5.45;3.13;;;8.10;99.90;;;;;;5066704;28;20055;-72
2023/11/07 04:15:56;;;;;;;6.55;2.88;;;8.00;99.90;;;;;;5068369;28;20055;-72
2023/11/07 04:18:23;;;;;;;7.93;3.47;;;8.00;99.90;;;;;;5064734;28;20854;-72
2023/11/07 04:20:49;;;;;;;4.85;2.88;;;8.00;99.90;;;;;;5065235;28;20040;-72
2023/11/07 04:23:16;;;;;;;5.28;3.13;;;8.00;99.90;;;;;;5065640;28;20036;-73
2023/11/07 04:25:42;;;;;;;5.72;2.88;;;8.00;99.90;;;;;;5065083;28;20036;-73
2023/11/07 04:28:09;;;;;;;6.00;2.90;;;8.00;99.90;;;;;;5068160;28;20107;-73
2023/11/07 04:30:35;;;;;;;5.07;3.15;;;8.00;99.90;;;;;;5069266;28;20048;-73
2023/11/07 04:33:00;;;;;;;4.75;3.05;;;8.00;99.90;;;;;;5068952;28;20054;-73
2023/11/07 04:35:26;;;;;;;6.30;3.30;;;8.00;99.90;;;;;;5067750;28;20032;-73
2023/11/07 04:37:54;;;;;;;4.75;2.67;;;8.00;99.90;;;;;;5068592;28;20051;-72
2023/11/07 04:40:20;;;;;;;6.38;3.38;;;8.10;99.90;;;;;;5067798;28;20043;-73
2023/11/07 04:42:45;;;;;;;7.28;3.55;;;8.00;99.90;;;;;;5068316;28;20389;-73
2023/11/07 04:45:11;;;;;;;6.18;3.88;;;8.00;99.90;;;;;;5069717;28;20117;-73
2023/11/07 04:47:38;;;;;;;6.78;3.80;;;8.00;99.90;;;;;;5068127;28;20040;-73
2023/11/07 04:50:04;;;;;;;6.20;3.13;;;8.00;99.90;;;;;;5069057;28;20082;-73
2023/11/07 04:52:32;;;;;;;5.63;3.13;;;8.10;99.90;;;;;;5072694;28;20047;-72
2023/11/07 04:54:57;;;;;;;5.93;3.10;;;8.00;99.90;;;;;;5068000;28;20375;-72
2023/11/07 04:57:23;;;;;;;6.35;3.35;;;8.00;99.90;;;;;;5067384;28;20031;-73
2023/11/07 04:59:48;;;;;;;4.95;3.15;;;8.00;99.90;;;;;;5068735;28;20079;-73
2023/11/07 05:02:15;;;;;;;4.68;2.97;;;8.00;99.90;;;;;;5067935;28;20491;-73
2023/11/07 05:04:44;;;;;;;4.60;2.60;;;8.00;99.90;;;;;;5065925;28;20031;-73
2023/11/07 05:07:09;;;;;;;5.88;3.47;;;8.10;99.90;;;;;;5067187;28;20726;-72
2023/11/07 05:09:36;;;;;;;6.13;3.85;;;8.10;99.90;;;;;;5068633;28;20039;-73
2023/11/07 05:12:03;;;;;;;7.32;4.13;;;8.00;99.90;;;;;;5068240;28;20113;-72
2023/11/07 05:14:29;;;;;;;7.93;3.85;;;8.00;99.90;;;;;;5067526;28;20036;-73
2023/11/07 05:16:55;;;;;;;5.68;3.70;;;7.90;99.90;;;;;;5065992;28;20043;-73
2023/11/07 05:19:20;;;;;;;6.95;3.75;;;8.00;99.90;;;;;;5064776;28;20035;-73
2023/11/07 05:21:46;;;;;;;6.85;3.15;;;8.00;99.90;;;;;;5066895;28;20039;-73
2023/11/07 05:24:12;;;;;;;5.40;3.40;;;8.00;99.90;;;;;;5068115;28;20028;-73
2023/11/07 05:26:37;;;;;;;6.05;3.85;;;8.00;99.90;;;;;;5068100;28;20036;-73
2023/11/07 05:29:03;;;;;;;7.20;3.67;;;8.00;99.90;;;;;;5071489;28;20039;-73
2023/11/07 05:31:30;;;;;;;5.30;3.45;;;8.00;99.90;;;;;;5069549;28;20032;-72
2023/11/07 05:33:56;;;;;;;5.78;3.95;;;8.00;99.90;;;;;;5067156;28;20489;-72
2023/11/07 05:36:22;;;;;;;5.57;3.35;;;8.00;99.90;;;;;;5066692;28;20089;-72
2023/11/07 05:57:08;;;;;;;5.57;3.63;;;7.90;99.90;;;;;;5088552;27;20903;-75
2023/11/07 05:59:34;;;;;;;6.80;3.80;;;7.90;99.90;;;;;;5084467;28;20123;-76
2023/11/07 06:02:00;;;;;;;5.25;3.78;;;7.90;99.90;;;;;;5071565;28;20112;-76
2023/11/07 06:04:43;;;;;;;7.30;3.00;;;7.90;99.90;;;;;;5080312;28;20028;-76
2023/11/07 06:07:10;;;;;;;7.13;3.93;;;7.90;99.90;;;;;;5077540;28;20039;-76
2023/11/07 06:09:35;;;;;;;9.43;3.85;;;7.90;99.90;;;;;;5078887;28;20032;-76
2023/11/07 06:12:01;;;;;;;6.45;3.67;;;7.90;99.90;;;;;;5079827;28;20028;-76
2023/11/07 06:14:27;;;;;;;4.60;3.00;;;8.00;99.90;;;;;;5084142;28;20036;-74
2023/11/07 06:16:53;;;;;;;6.07;3.03;;;8.00;99.90;;;;;;5087627;28;20612;-74
2023/11/07 06:19:23;;;;;;;7.07;3.60;;;8.10;99.90;;;;;;5079200;28;20028;-72
2023/11/07 06:21:49;;;;;;;6.88;4.40;;;8.00;99.90;;;;;;5077616;28;20444;-74
2023/11/07 06:24:15;;;;;;;5.97;3.95;;;8.00;99.90;;;;;;5082951;28;20042;-74
2023/11/07 06:26:42;;;;;;;6.75;3.90;;;8.00;99.90;;;;;;5076723;28;20028;-74
2023/11/07 06:29:09;;;;;;;8.95;3.85;;;8.10;99.90;;;;;;5086128;28;20052;-74
2023/11/07 06:31:34;;;;;;;39.53;29.30;;;8.10;99.90;;;;;;5066702;28;20048;-74
2023/11/07 06:34:00;;;;;;;10.98;7.45;;;8.10;99.90;;;;;;5066642;28;20123;-74
2023/11/07 06:36:26;;;;;;;9.15;5.45;;;8.00;99.90;;;;;;5065977;28;20040;-74
2023/11/07 06:38:53;;;;;;;9.80;4.50;;;7.90;99.90;;;;;;5067858;28;20036;-74
2023/11/07 06:41:19;;;;;;;6.70;4.25;;;8.00;99.90;;;;;;5067309;28;20233;-74
2023/11/07 06:43:46;;;;;;;7.38;4.40;;;8.00;99.90;;;;;;5066265;28;20087;-74
2023/11/07 06:46:13;;;;;;;9.25;3.63;;;8.00;99.90;;;;;;5067340;28;20105;-74
2023/11/07 06:48:42;;;;;;;6.60;3.65;;;8.00;99.90;;;;;;5067098;28;20091;-74
2023/11/07 06:51:07;;;;;;;6.53;3.63;;;8.00;99.90;;;;;;5067198;28;20036;-74
2023/11/07 06:53:33;;;;;;;7.13;3.83;;;8.00;99.90;;;;;;5068061;28;20523;-74
2023/11/07 06:55:59;;;;;;;6.82;3.33;;;8.00;99.90;;;;;;5062192;28;20072;-73
2023/11/07 06:58:24;;;;;;;6.95;3.38;;;8.00;99.90;;;;;;5049963;28;20988;-73
2023/11/07 07:00:54;;;;;;;6.25;3.22;;;8.10;99.90;;;;;;5053306;28;20040;-73
2023/11/07 07:03:24;;;;;;;6.65;3.38;;;8.20;99.90;;;;;;5052793;28;20191;-73
2023/11/07 07:05:51;;;;;;;8.80;3.67;;;8.20;99.90;;;;;;5047564;28;20435;-73
2023/11/07 07:08:17;;;;;;;7.55;3.40;;;8.20;99.90;;;;;;5050995;28;20480;-73
2023/11/07 07:10:43;;;;;;;6.13;4.03;;;8.30;99.90;;;;;;5048401;28;20036;-73
2023/11/07 07:13:09;;;;;;;7.60;3.75;;;8.30;99.90;;;;;;5049854;28;20094;-73
2023/11/07 07:15:37;;;;;;;12.77;6.43;;;8.20;99.90;;;;;;5049265;28;20128;-73
2023/11/07 07:18:05;;;;;;;11.10;6.10;;;8.30;99.90;;;;;;5052019;28;20082;-73
2023/11/07 07:20:36;;;;;;;23.63;15.82;;;8.40;99.90;;;;;;5050953;28;20024;-73
2023/11/07 07:23:06;;;;;;;30.30;19.98;;;8.40;99.90;;;;;;5051957;28;20174;-74
2023/11/07 07:25:32;;;;;;;37.42;25.55;;;8.50;99.90;;;;;;5047711;28;20033;-74
2023/11/07 07:27:59;;;;;;;56.65;33.13;;;8.50;99.90;;;;;;5049121;28;20127;-74
2023/11/07 07:30:26;;;;;;;30.52;19.27;;;8.20;99.90;;;;;;5049904;28;20032;-74
2023/11/07 07:32:52;;;;;;;19.65;11.43;;;8.40;99.90;;;;;;5050886;28;20089;-74
2023/11/07 07:35:20;;;;;;;16.05;9.55;;;8.40;99.90;;;;;;5050006;28;20101;-74
2023/11/07 07:37:53;;;;;;;13.43;8.82;;;8.50;99.90;;;;;;5049919;28;20036;-74
2023/11/07 07:40:25;;;;;;;11.93;8.07;;;8.50;99.90;;;;;;5051023;28;20086;-73
2023/11/07 07:43:08;;;;;;;27.05;14.93;;;8.60;99.90;;;;;;5050526;28;20497;-75
2023/11/07 07:45:35;;;;;;;41.25;23.08;;;8.70;99.90;;;;;;5050000;28;20458;-75
2023/11/07 07:48:06;;;;;;;30.83;19.60;;;8.70;99.90;;;;;;5048906;28;20043;-74
2023/11/07 07:50:32;;;;;;;26.42;16.25;;;8.80;99.90;;;;;;5050195;28;20029;-75
2023/11/07 07:53:01;;;;;;;36.72;21.50;;;8.90;99.90;;;;;;5050642;28;20036;-75
2023/11/07 07:55:27;;;;;;;216.75;127.32;;;8.70;99.90;;;;;;5045262;28;21160;-74
2023/11/07 07:57:54;;;;;;;108.75;64.07;;;8.70;99.90;;;;;;5051231;28;20074;-72
2023/11/07 08:00:24;;;;;;;111.25;63.00;;;9.00;99.90;;;;;;5055553;28;20048;-75
2023/11/07 08:02:53;;;;;;;238.75;135.48;;;9.00;99.90;;;;;;5050401;28;20063;-74
2023/11/07 08:05:18;;;;;;;186.77;112.63;;;9.10;99.90;;;;;;5049990;28;20568;-74
2023/11/07 08:07:45;;;;;;;103.30;62.13;;;9.20;99.90;;;;;;5050496;28;20128;-74
2023/11/07 08:10:16;;;;;;;31.83;21.92;;;9.20;99.90;;;;;;5049247;28;20033;-74
2023/11/07 08:12:43;;;;;;;21.77;12.63;;;9.10;99.90;;;;;;5049097;28;20032;-73
2023/11/07 08:15:10;;;;;;;13.02;8.13;;;9.10;99.90;;;;;;5049723;28;20526;-75
2023/11/07 08:17:35;;;;;;;11.45;6.88;;;9.00;99.90;;;;;;5049908;28;20036;-74
2023/11/07 08:20:19;;;;;;;9.23;6.20;;;9.00;99.90;;;;;;5047945;28;21093;-74
2023/11/07 08:22:47;;;;;;;6.88;4.72;;;8.90;99.90;;;;;;5048646;28;20091;-75
2023/11/07 08:25:14;;;;;;;9.90;4.63;;;8.80;99.90;;;;;;5049220;28;20037;-79
2023/11/07 08:27:41;;;;;;;7.32;4.82;;;8.90;99.90;;;;;;5049998;28;20543;-77
2023/11/07 08:30:14;;;;;;;7.82;4.93;;;8.90;99.90;;;;;;5048434;28;20037;-77
2023/11/07 08:32:42;;;;;;;8.00;4.20;;;9.00;99.90;;;;;;5049165;28;20098;-77
2023/11/07 08:35:11;;;;;;;6.32;4.20;;;9.10;99.90;;;;;;5050992;28;20076;-75
2023/11/07 08:37:40;;;;;;;7.20;4.93;;;9.20;99.90;;;;;;5048688;28;20055;-76
2023/11/07 08:40:10;;;;;;;8.70;4.43;;;9.30;99.90;;;;;;5046739;28;20498;-74
2023/11/07 08:42:42;;;;;;;7.95;5.50;;;9.20;99.90;;;;;;5046880;28;20029;-76
2023/11/07 08:45:13;;;;;;;16.10;9.07;;;9.40;99.90;;;;;;5049432;28;20147;-76
2023/11/07 08:47:39;;;;;;;18.95;16.35;;;9.30;99.90;;;;;;5050374;28;20032;-74
2023/11/07 08:50:05;;;;;;;13.80;12.38;;;9.20;99.90;;;;;;5048258;28;20500;-74
2023/11/07 08:52:30;;;;;;;11.85;7.18;;;9.10;99.90;;;;;;5050374;28;20025;-74
2023/11/07 08:54:56;;;;;;;8.50;5.63;;;9.30;99.90;;;;;;5047405;28;20044;-74
2023/11/07 08:57:23;;;;;;;9.88;5.43;;;9.40;99.90;;;;;;5048837;28;20120;-76
2023/11/07 08:59:51;;;;;;;7.03;5.32;;;9.40;99.90;;;;;;5048051;28;20028;-73
2023/11/07 09:02:17;;;;;;;9.20;5.15;;;9.60;99.90;;;;;;5046951;28;20676;-73
2023/11/07 09:04:43;;;;;;;8.20;4.45;;;9.60;99.90;;;;;;5047871;28;20441;-73
2023/11/07 09:07:09;;;;;;;6.80;4.70;;;9.70;99.90;;;;;;5049251;28;20044;-76
2023/11/07 09:09:35;;;;;;;12.27;4.85;;;9.70;99.90;;;;;;5049240;28;20067;-76
2023/11/07 09:12:01;;;;;;;7.18;4.90;;;9.60;99.90;;;;;;5047740;28;20040;-75
2023/11/07 09:14:27;;;;;;;8.38;5.57;;;9.70;99.90;;;;;;5048985;28;20040;-74
2023/11/07 09:16:53;;;;;;;8.13;4.97;;;9.90;99.90;;;;;;5049329;28;20041;-74
2023/11/07 09:19:19;;;;;;;8.05;4.82;;;9.90;99.90;;;;;;5048467;28;20064;-75
2023/11/07 09:21:44;;;;;;;9.95;5.63;;;9.90;99.90;;;;;;5049663;28;20024;-75
2023/11/07 09:24:10;;;;;;;10.13;5.63;;;9.90;99.90;;;;;;5048055;28;20055;-75
2023/11/07 09:26:36;;;;;;;9.45;4.88;;;9.90;99.90;;;;;;5047926;28;20059;-76
2023/11/07 09:29:08;;;;;;;10.07;5.70;;;9.90;99.90;;;;;;5049082;28;20110;-74
2023/11/07 09:31:33;;;;;;;9.77;5.57;;;9.90;99.90;;;;;;5048099;28;20414;-76
2023/11/07 09:33:59;;;;;;;7.35;5.32;;;10.20;99.90;;;;;;5047570;28;20501;-75
2023/11/07 09:36:25;;;;;;;11.77;5.95;;;10.00;99.90;;;;;;5049930;28;20052;-75
2023/11/07 09:38:51;;;;;;;6.72;4.93;;;9.90;99.90;;;;;;5049910;28;20055;-77
2023/11/07 09:41:17;;;;;;;8.10;5.15;;;9.70;99.90;;;;;;5048996;28;20040;-76
2023/11/07 09:43:45;;;;;;;6.80;4.75;;;9.80;99.90;;;;;;5050154;28;20643;-76
2023/11/07 09:46:11;;;;;;;8.65;5.47;;;9.90;99.90;;;;;;5048579;28;20032;-76
2023/11/07 09:48:36;;;;;;;8.88;5.38;;;10.00;99.90;;;;;;5047513;28;20860;-80
2023/11/07 09:51:07;;;;;;;8.57;5.18;;;10.10;99.90;;;;;;5049442;28;20045;-75
2023/11/07 09:53:35;;;;;;;8.57;5.53;;;10.10;99.90;;;;;;5049210;28;20032;-77
2023/11/07 09:56:03;;;;;;;7.18;5.45;;;10.20;99.90;;;;;;5047857;28;20206;-76
2023/11/07 09:58:30;;;;;;;6.50;5.00;;;10.20;99.90;;;;;;5049770;28;20041;-75
2023/11/07 10:00:59;;;;;;;9.02;5.45;;;10.20;99.90;;;;;;5048952;28;20025;-76
2023/11/07 10:03:25;;;;;;;6.68;5.03;;;10.20;99.90;;;;;;5048653;28;20040;-75
2023/11/07 10:05:51;;;;;;;9.82;5.40;;;10.20;99.90;;;;;;5048952;28;20442;-77
2023/11/07 10:08:22;;;;;;;9.43;5.70;;;10.30;99.90;;;;;;5049393;28;20064;-78
2023/11/07 10:11:13;;;;;;;7.07;4.93;;;10.30;99.90;;;;;;5048282;28;20078;-76
2023/11/07 10:14:02;;;;;;;7.65;5.20;;;10.40;99.90;;;;;;5047971;28;20121;-75
2023/11/07 10:16:40;;;;;;;7.70;5.25;;;10.60;99.90;;;;;;5048003;28;20481;-76
2023/11/07 10:19:08;;;;;;;41.08;27.40;;;10.40;99.90;;;;;;5047790;28;20120;-78
2023/11/07 10:21:35;;;;;;;130.63;68.68;;;10.20;99.90;;;;;;5047807;28;20036;-76
2023/11/07 10:24:01;;;;;;;86.32;48.35;;;10.40;99.90;;;;;;5047912;28;20047;-76
2023/11/07 10:26:27;;;;;;;38.25;24.67;;;10.40;99.90;;;;;;5047665;28;20119;-77
2023/11/07 10:29:14;;;;;;;19.00;12.15;;;10.30;99.90;;;;;;5047516;28;20040;-78
2023/11/07 10:31:43;;;;;;;10.00;6.65;;;10.40;99.90;;;;;;5049057;28;20037;-77
2023/11/07 10:34:14;;;;;;;9.75;5.63;;;10.60;99.90;;;;;;5051592;28;20048;-76
2023/11/07 10:36:41;;;;;;;8.48;5.43;;;10.50;99.90;;;;;;5052172;28;20040;-79
2023/11/07 10:39:21;;;;;;;9.02;5.38;;;10.70;99.90;;;;;;5051350;28;20037;-76
2023/11/07 10:41:50;;;;;;;7.60;4.32;;;10.80;99.90;;;;;;5050587;28;20029;-76
2023/11/07 10:44:16;;;;;;;6.30;4.55;;;10.90;99.90;;;;;;5051882;28;20032;-76
2023/11/07 10:46:44;;;;;;;6.78;4.32;;;10.70;99.90;;;;;;5052346;28;20870;-76
2023/11/07 10:49:13;;;;;;;7.70;4.88;;;10.70;99.90;;;;;;5050931;28;20094;-78
2023/11/07 10:51:42;;;;;;;8.00;4.25;;;10.80;99.90;;;;;;5051699;28;20075;-78
2023/11/07 10:54:07;;;;;;;11.38;4.20;;;10.90;99.90;;;;;;5051423;28;20532;-79
2023/11/07 10:56:38;;;;;;;5.72;3.60;;;11.10;99.90;;;;;;5052285;28;20056;-77
2023/11/07 10:59:11;;;;;;;6.57;4.00;;;11.10;99.90;;;;;;5050948;28;20231;-78
2023/11/07 11:01:40;;;;;;;6.63;4.18;;;11.20;99.90;;;;;;5050348;28;20059;-78
2023/11/07 11:04:11;;;;;;;12.75;6.65;;;11.20;99.90;;;;;;5052257;28;20044;-77
2023/11/07 11:06:41;;;;;;;9.63;4.60;;;11.30;99.90;;;;;;5051955;28;20029;-78
2023/11/07 11:09:11;;;;;;;7.65;4.32;;;11.40;99.90;;;;;;5051801;28;20039;-78
2023/11/07 11:11:38;;;;;;;7.70;4.10;;;11.40;99.90;;;;;;5051319;28;20033;-78
2023/11/07 11:14:08;;;;;;;7.10;4.18;;;11.40;99.90;;;;;;5051492;28;20035;-78
2023/11/07 11:16:38;;;;;;;90.68;58.05;;;11.40;99.90;;;;;;5052125;28;20041;-78
2023/11/07 11:19:34;;;;;;;108.13;68.80;;;11.50;99.90;;;;;;5051968;28;20030;-78
2023/11/07 11:22:15;;;;;;;14.57;9.63;;;11.70;99.90;;;;;;5051790;28;20036;-79
2023/11/07 11:25:06;;;;;;;10.27;4.38;;;11.70;99.90;;;;;;5051239;28;20485;-78
2023/11/07 11:27:45;;;;;;;8.18;4.03;;;11.70;99.90;;;;;;5052661;28;20281;-78
2023/11/07 11:30:11;;;;;;;5.78;3.92;;;11.60;99.90;;;;;;5050721;28;20040;-78
2023/11/07 11:32:42;;;;;;;7.00;4.13;;;11.50;99.90;;;;;;5049457;28;20043;-75
2023/11/07 11:35:21;;;;;;;6.20;3.35;;;11.50;99.90;;;;;;5050485;28;20047;-80
2023/11/07 11:38:23;;;;;;;5.07;3.05;;;11.40;99.90;;;;;;5051722;28;20024;-81
2023/11/07 11:40:56;;;;;;;5.82;3.22;;;11.40;99.90;;;;;;5049754;28;20458;-78
2023/11/07 11:43:24;;;;;;;5.93;2.90;;;11.50;99.90;;;;;;5050091;28;20466;-78
2023/11/07 11:45:51;;;;;;;5.32;2.97;;;11.40;99.90;;;;;;5049731;28;20037;-77
2023/11/07 11:48:19;;;;;;;7.28;3.53;;;11.50;99.90;;;;;;5049460;28;20077;-77
2023/11/07 11:51:08;;;;;;;6.05;2.88;;;11.50;99.90;;;;;;5049240;28;20466;-77
2023/11/07 11:53:34;;;;;;;5.15;2.55;;;11.60;99.90;;;;;;5048605;28;20024;-78
2023/11/07 11:56:00;;;;;;;4.47;2.20;;;11.50;99.90;;;;;;5050747;28;20110;-78
2023/11/07 11:58:31;;;;;;;5.03;2.88;;;11.60;99.90;;;;;;5065975;28;20040;-78
2023/11/07 12:01:00;;;;;;;5.30;2.92;;;11.50;99.90;;;;;;5050059;28;20036;-78
2023/11/07 12:03:36;;;;;;;7.93;2.22;;;11.70;99.90;;;;;;5049087;28;20040;-77
2023/11/07 12:06:02;;;;;;;5.03;2.85;;;12.00;99.90;;;;;;5049509;28;20029;-79
2023/11/07 12:08:36;;;;;;;4.50;2.10;;;12.00;99.90;;;;;;5049816;28;20079;-77
2023/11/07 12:11:05;;;;;;;5.10;2.40;;;11.80;99.90;;;;;;5049531;28;20032;-78
2023/11/07 12:13:31;;;;;;;4.47;2.13;;;11.50;99.90;;;;;;5050135;28;20631;-79
2023/11/07 12:16:18;;;;;;;4.75;2.10;;;11.30;99.90;;;;;;5050590;28;20041;-78
2023/11/07 12:18:46;;;;;;;5.30;2.65;;;11.30;99.90;;;;;;5049595;28;20037;-78
2023/11/07 12:21:26;;;;;;;4.63;2.20;;;11.50;99.90;;;;;;5048931;28;20114;-79
2023/11/07 12:23:53;;;;;;;5.35;2.22;;;11.50;99.90;;;;;;5047882;28;20620;-78
2023/11/07 12:26:20;;;;;;;5.65;2.50;;;11.40;99.90;;;;;;5048211;28;20075;-78
2023/11/07 12:28:46;;;;;;;4.60;1.80;;;11.20;99.90;;;;;;5049106;28;20033;-77
2023/11/07 12:31:12;;;;;;;4.65;2.30;;;11.20;99.90;;;;;;5049874;28;20517;-79
2023/11/07 12:33:42;;;;;;;7.60;1.90;;;11.20;99.90;;;;;;5050062;28;20040;-78
2023/11/07 12:36:11;;;;;;;4.18;1.75;;;11.30;99.90;;;;;;5048533;28;20040;-78
2023/11/07 12:38:37;;;;;;;6.20;3.00;;;11.20;99.90;;;;;;5048006;28;20051;-77
2023/11/07 12:41:05;;;;;;;4.28;2.00;;;11.30;99.90;;;;;;5046876;28;20036;-79
2023/11/07 12:43:40;;;;;;;4.75;2.67;;;11.40;99.90;;;;;;5049303;28;20036;-77
2023/11/07 12:46:10;;;;;;;5.38;2.30;;;11.30;99.90;;;;;;5048019;28;20036;-77
2023/11/07 12:48:37;;;;;;;4.72;2.30;;;11.10;99.90;;;;;;5049288;28;20054;-77
2023/11/07 12:51:08;;;;;;;5.95;2.15;;;11.00;99.90;;;;;;5049209;28;20418;-78
2023/11/07 12:53:44;;;;;;;4.30;2.40;;;11.10;99.90;;;;;;5049818;28;20032;-77
2023/11/07 12:56:10;;;;;;;3.95;2.38;;;11.20;99.90;;;;;;5048436;28;20051;-78
2023/11/07 12:58:36;;;;;;;4.20;2.30;;;11.20;99.90;;;;;;5048302;28;20065;-77
2023/11/07 13:01:07;;;;;;;6.50;3.20;;;11.40;99.90;;;;;;5048752;28;20175;-78
2023/11/07 13:03:33;;;;;;;4.50;2.08;;;11.50;99.90;;;;;;5049785;28;20099;-79
2023/11/07 13:06:09;;;;;;;4.15;2.40;;;11.30;99.90;;;;;;5046681;28;20787;-79
2023/11/07 13:08:41;;;;;;;5.85;2.15;;;11.10;99.90;;;;;;5048819;28;20050;-78
2023/11/07 13:11:17;;;;;;;4.78;2.20;;;11.30;99.90;;;;;;5047822;28;20091;-78
2023/11/07 13:13:48;;;;;;;5.55;2.35;;;11.40;99.90;;;;;;5050141;28;20040;-77